Time;durP1;ratioP1;P1;durP2;ratioP2;P2;SDS_P1;SDS_P2;PMS_P1;PMS_P2;Temp;Humidity;BMP_temperature;BMP_pressure;BME280_temperature;BME280_humidity;BME280_pressure;Samples;Min_cycle;Max_cycle;Signal;HPM_P1;HPM_P2
2023/01/16 00:01:49;;;;;;;5.50;2.28;;;;;;;3.94;98.35;99571.88;5021764;28;20025;-65
2023/01/16 00:04:15;;;;;;;6.18;2.13;;;;;;;3.90;98.00;99573.50;5023703;28;20029;-65
2023/01/16 00:06:40;;;;;;;6.00;2.20;;;;;;;3.89;97.70;99561.44;5023606;28;20025;-65
2023/01/16 00:09:06;;;;;;;4.85;1.95;;;;;;;3.86;97.52;99557.91;5023614;28;20025;-65
2023/01/16 00:11:31;;;;;;;5.25;1.95;;;;;;;3.81;97.66;99550.03;5023231;28;20032;-65
2023/01/16 00:13:58;;;;;;;8.60;2.95;;;;;;;3.78;97.56;99553.41;5022835;28;20022;-65
2023/01/16 00:16:24;;;;;;;7.57;3.17;;;;;;;3.76;97.74;99549.88;5022879;28;20033;-65
2023/01/16 00:18:49;;;;;;;6.38;2.47;;;;;;;3.74;97.68;99546.41;5022043;28;20058;-65
2023/01/16 00:21:14;;;;;;;5.82;2.47;;;;;;;3.71;98.19;99548.00;5022746;28;20479;-65
2023/01/16 00:23:40;;;;;;;5.15;2.20;;;;;;;3.68;97.96;99535.03;5023842;28;20187;-65
2023/01/16 00:26:09;;;;;;;7.90;2.75;;;;;;;3.64;98.28;99537.50;5025740;28;20032;-65
2023/01/16 00:28:36;;;;;;;9.27;2.63;;;;;;;3.63;98.21;99538.31;5027225;28;20059;-65
2023/01/16 00:31:01;;;;;;;5.70;2.80;;;;;;;3.60;98.58;99533.09;5026456;28;20033;-65
2023/01/16 00:33:27;;;;;;;7.43;3.10;;;;;;;3.58;98.52;99529.59;5027514;28;20059;-65
2023/01/16 00:35:52;;;;;;;8.02;3.03;;;;;;;3.59;98.73;99535.63;5027972;28;20061;-65
2023/01/16 00:38:17;;;;;;;7.97;2.95;;;;;;;3.56;98.79;99531.25;5027218;28;20033;-65
2023/01/16 00:40:43;;;;;;;7.82;3.10;;;;;;;3.53;98.96;99526.00;5027821;28;20083;-65
2023/01/16 00:43:08;;;;;;;7.38;3.08;;;;;;;3.52;99.21;99513.97;5026185;28;20033;-65
2023/01/16 00:45:33;;;;;;;9.52;3.15;;;;;;;3.52;99.28;99524.28;5027189;28;20495;-65
2023/01/16 00:47:59;;;;;;;7.90;3.08;;;;;;;3.53;99.20;99518.28;5027312;28;20056;-65
2023/01/16 00:50:24;;;;;;;8.18;2.78;;;;;;;3.53;98.91;99515.69;5027612;28;20025;-65
2023/01/16 00:52:50;;;;;;;11.48;3.15;;;;;;;3.52;99.05;99515.66;5027069;28;20468;-65
2023/01/16 00:55:15;;;;;;;8.30;2.90;;;;;;;3.51;99.20;99511.34;5026739;28;20319;-65
2023/01/16 00:57:40;;;;;;;9.55;3.17;;;;;;;3.50;99.38;99504.44;5027499;28;20099;-65
2023/01/16 01:00:07;;;;;;;11.95;2.58;;;;;;;3.48;99.30;99502.69;5027005;28;20021;-65
2023/01/16 01:02:32;;;;;;;8.68;3.08;;;;;;;3.47;99.23;99493.22;5026267;28;20033;-65
2023/01/16 01:04:57;;;;;;;9.40;2.40;;;;;;;3.46;99.28;99485.44;5027317;28;20395;-65
2023/01/16 01:07:23;;;;;;;8.13;2.63;;;;;;;3.45;99.13;99486.28;5025708;28;20640;-65
2023/01/16 01:09:48;;;;;;;5.70;2.17;;;;;;;3.43;99.23;99487.94;5027378;28;20044;-65
2023/01/16 01:12:14;;;;;;;10.05;2.22;;;;;;;3.43;99.38;99475.06;5026865;28;20112;-66
2023/01/16 01:14:39;;;;;;;10.95;2.20;;;;;;;3.43;99.20;99472.47;5041840;28;20550;-65
2023/01/16 01:17:04;;;;;;;10.45;2.58;;;;;;;3.40;98.91;99465.53;5027179;28;20040;-65
2023/01/16 01:19:29;;;;;;;7.75;2.38;;;;;;;3.40;99.00;99470.69;5026927;28;20025;-65
2023/01/16 01:21:55;;;;;;;8.68;2.30;;;;;;;3.39;98.77;99460.34;5027030;28;20057;-65
2023/01/16 01:24:21;;;;;;;5.40;2.45;;;;;;;3.38;98.22;99458.63;5026606;28;20030;-65
2023/01/16 01:26:46;;;;;;;8.90;2.45;;;;;;;3.36;98.46;99456.00;5025753;28;20482;-65
2023/01/16 01:29:11;;;;;;;7.10;1.77;;;;;;;3.33;98.59;99445.56;5026912;28;20032;-65
2023/01/16 01:31:37;;;;;;;10.55;1.98;;;;;;;3.29;98.60;99444.63;5026799;28;20025;-65
2023/01/16 01:34:02;;;;;;;7.65;2.60;;;;;;;3.27;98.61;99437.69;5026920;28;20052;-65
2023/01/16 01:36:28;;;;;;;7.13;1.85;;;;;;;3.23;98.57;99433.25;5025704;28;20039;-65
2023/01/16 01:38:53;;;;;;;7.32;2.20;;;;;;;3.20;98.73;99425.44;5023760;28;20083;-65
2023/01/16 01:41:19;;;;;;;6.15;2.05;;;;;;;3.19;98.72;99423.72;5025999;28;20025;-65
2023/01/16 01:43:47;;;;;;;6.10;1.90;;;;;;;3.16;98.77;99413.31;5025914;28;20029;-65
2023/01/16 01:46:29;;;;;;;8.93;2.05;;;;;;;3.14;98.47;99408.13;5026793;28;20024;-65
2023/01/16 01:49:04;;;;;;;11.63;2.17;;;;;;;3.13;99.03;99398.69;5025725;28;20040;-65
2023/01/16 01:51:35;;;;;;;10.00;1.95;;;;;;;3.09;98.51;99384.81;5026133;28;20151;-65
2023/01/16 01:54:11;;;;;;;8.25;2.10;;;;;;;3.05;98.50;99390.69;5026145;28;20032;-65
2023/01/16 01:56:42;;;;;;;9.65;1.95;;;;;;;3.02;98.94;99385.47;5025429;28;20068;-65
2023/01/16 01:59:14;;;;;;;6.85;1.90;;;;;;;3.01;98.92;99382.84;5025942;28;20100;-65
2023/01/16 02:01:39;;;;;;;9.90;2.10;;;;;;;2.96;99.07;99363.00;5024739;28;20037;-65
2023/01/16 02:04:09;;;;;;;8.88;2.35;;;;;;;2.95;99.22;99357.81;5023770;28;20025;-65
2023/01/16 02:06:43;;;;;;;8.38;2.15;;;;;;;2.92;98.67;99357.72;5025755;28;20014;-65
2023/01/16 02:09:08;;;;;;;6.40;2.13;;;;;;;2.90;99.10;99349.97;5025860;28;20651;-65
2023/01/16 02:11:40;;;;;;;10.20;2.53;;;;;;;2.88;98.86;99353.31;5025919;28;20530;-65
2023/01/16 02:14:09;;;;;;;8.45;1.80;;;;;;;2.85;99.09;99348.94;5025462;28;20609;-65
2023/01/16 02:19:36;;;;;;;10.50;2.45;;;;;;;2.85;99.31;99332.63;5026000;28;20060;-65
2023/01/16 02:22:36;;;;;;;6.40;1.90;;;;;;;2.83;99.78;99330.03;5025843;28;20120;-65
2023/01/16 02:25:40;;;;;;;8.52;2.08;;;;;;;2.86;99.52;99330.09;5025384;28;20511;-65
2023/01/16 02:28:24;;;;;;;8.45;1.92;;;;;;;2.85;99.25;99322.34;5025054;28;20087;-65
2023/01/16 02:31:26;;;;;;;6.95;2.42;;;;;;;2.86;99.34;99313.81;5025324;28;20021;-65
2023/01/16 02:34:31;;;;;;;10.82;2.10;;;;;;;2.84;99.40;99297.44;5025210;28;20498;-65
2023/01/16 02:37:17;;;;;;;7.00;2.30;;;;;;;2.82;99.54;99289.69;5002268;28;20041;-65
2023/01/16 02:40:16;;;;;;;8.20;2.28;;;;;;;2.83;99.22;99280.28;5025322;28;20033;-65
2023/01/16 02:42:45;;;;;;;6.95;2.10;;;;;;;2.82;99.18;99263.97;5025381;28;20021;-65
2023/01/16 02:45:39;;;;;;;8.70;2.20;;;;;;;2.80;99.24;99257.91;5025089;28;20163;-65
2023/01/16 02:48:17;;;;;;;7.43;1.80;;;;;;;2.77;98.85;99252.69;5023200;28;20049;-65
2023/01/16 02:51:10;;;;;;;7.40;2.00;;;;;;;2.74;99.32;99240.59;5025523;28;20080;-65
2023/01/16 02:54:10;;;;;;;8.02;2.20;;;;;;;2.72;99.36;99226.84;5025512;28;20457;-65
2023/01/16 02:56:42;;;;;;;10.38;2.20;;;;;;;2.70;99.03;99219.91;5023995;28;20041;-65
2023/01/16 02:59:10;;;;;;;7.85;1.90;;;;;;;2.67;99.25;99210.41;5024681;28;20032;-65
2023/01/16 03:01:38;;;;;;;9.85;2.00;;;;;;;2.65;99.20;99206.03;5024801;28;20025;-65
2023/01/16 03:04:24;;;;;;;7.22;1.75;;;;;;;2.62;99.47;99193.94;5023768;28;20017;-65
2023/01/16 03:07:14;;;;;;;9.05;1.88;;;;;;;2.65;99.73;99191.50;5024332;28;20029;-65
2023/01/16 03:09:48;;;;;;;8.60;2.50;;;;;;;2.66;99.64;99187.22;5023430;28;20185;-65
2023/01/16 03:12:31;;;;;;;9.43;1.75;;;;;;;2.66;99.52;99177.78;5024501;28;20021;-65
2023/01/16 03:15:12;;;;;;;9.05;2.58;;;;;;;2.63;99.42;99182.84;5024677;28;20091;-65
2023/01/16 03:17:56;;;;;;;7.15;2.17;;;;;;;2.60;99.70;99160.47;5023844;28;20598;-65
2023/01/16 03:20:39;;;;;;;9.52;1.73;;;;;;;2.61;100.00;99148.50;5024583;28;20030;-65
2023/01/16 03:23:23;;;;;;;9.57;2.15;;;;;;;2.62;99.94;99142.53;5024253;28;20045;-65
2023/01/16 03:25:56;;;;;;;8.02;2.40;;;;;;;2.61;100.00;99139.09;5024165;28;20031;-65
2023/01/16 03:28:21;;;;;;;7.22;2.00;;;;;;;2.63;100.00;99127.97;5024543;28;20063;-65
2023/01/16 03:30:53;;;;;;;8.52;2.25;;;;;;;2.66;100.00;99130.63;5024517;28;20057;-65
2023/01/16 03:33:34;;;;;;;10.68;2.10;;;;;;;2.65;100.00;99122.06;5022739;28;20102;-65
2023/01/16 03:36:06;;;;;;;7.45;2.47;;;;;;;2.68;100.00;99116.09;5024463;28;20064;-65
2023/01/16 03:38:33;;;;;;;6.18;1.90;;;;;;;2.68;100.00;99104.13;5024628;28;20422;-65
2023/01/16 03:41:03;;;;;;;6.38;1.92;;;;;;;2.66;100.00;99103.22;5024141;28;20025;-65
2023/01/16 03:43:34;;;;;;;6.65;1.63;;;;;;;2.63;100.00;99090.28;5023157;28;20499;-65
2023/01/16 03:46:06;;;;;;;9.00;1.90;;;;;;;2.61;100.00;99087.66;5024223;28;20392;-65
2023/01/16 03:48:49;;;;;;;7.57;1.60;;;;;;;2.63;100.00;99079.13;5023842;28;20484;-65
2023/01/16 03:51:21;;;;;;;7.28;1.73;;;;;;;2.62;100.00;99067.94;5024086;28;20029;-65
2023/01/16 03:53:59;;;;;;;7.43;1.83;;;;;;;2.61;100.00;99056.81;5023904;28;20093;-65
2023/01/16 03:56:36;;;;;;;13.05;2.20;;;;;;;2.62;100.00;99047.38;5023083;28;20041;-65
2023/01/16 03:59:03;;;;;;;6.95;2.17;;;;;;;2.65;100.00;99032.06;5023616;28;20519;-65
2023/01/16 04:01:55;;;;;;;7.10;3.08;;;;;;;2.66;100.00;99022.63;5023662;28;20014;-65
2023/01/16 04:04:30;;;;;;;7.15;1.73;;;;;;;2.65;100.00;99023.47;5023674;28;20037;-65
2023/01/16 04:07:09;;;;;;;5.35;2.00;;;;;;;2.65;100.00;99023.47;5023882;28;20021;-65
2023/01/16 04:09:48;;;;;;;7.55;2.00;;;;;;;2.61;100.00;99007.97;5022616;28;20037;-65
2023/01/16 04:12:19;;;;;;;10.23;1.85;;;;;;;2.60;100.00;98997.63;5022833;28;20065;-65
2023/01/16 04:14:50;;;;;;;7.55;2.03;;;;;;;2.55;100.00;98988.91;5023155;28;20506;-65
2023/01/16 04:17:16;;;;;;;9.50;2.28;;;;;;;2.52;100.00;98982.03;5022820;28;20033;-65
2023/01/16 04:19:43;;;;;;;6.63;2.50;;;;;;;2.51;100.00;98974.28;5023970;28;20682;-65
2023/01/16 04:22:22;;;;;;;8.00;2.17;;;;;;;2.50;100.00;98969.97;5024050;28;20025;-65
2023/01/16 04:24:49;;;;;;;8.33;2.60;;;;;;;2.49;100.00;98956.25;5023942;28;20032;-65
2023/01/16 04:27:15;;;;;;;6.30;2.55;;;;;;;2.50;100.00;98949.38;5039524;28;20328;-65
2023/01/16 04:29:40;;;;;;;10.02;2.85;;;;;;;2.53;100.00;98941.75;5023715;28;20457;-65
2023/01/16 04:32:05;;;;;;;7.53;2.40;;;;;;;2.52;100.00;98927.16;5024162;28;20021;-65
2023/01/16 04:34:31;;;;;;;9.00;2.75;;;;;;;2.53;100.00;98919.47;5023127;28;20672;-65
2023/01/16 04:36:56;;;;;;;9.25;2.50;;;;;;;2.56;100.00;98909.28;5023117;28;20030;-65
2023/01/16 04:39:22;;;;;;;6.40;2.20;;;;;;;2.56;100.00;98901.59;5023142;28;20083;-65
2023/01/16 04:41:50;;;;;;;7.45;2.05;;;;;;;2.60;100.00;98890.50;5023738;28;20029;-65
2023/01/16 04:44:16;;;;;;;7.57;2.42;;;;;;;2.65;100.00;98884.63;5022665;28;20123;-65
2023/01/16 04:46:42;;;;;;;10.65;2.70;;;;;;;2.66;100.00;98868.38;5023460;28;20040;-65
2023/01/16 04:49:07;;;;;;;8.15;2.20;;;;;;;2.68;100.00;98862.44;5022896;28;20400;-65
2023/01/16 04:51:33;;;;;;;8.15;2.45;;;;;;;2.69;100.00;98845.28;5023493;28;20032;-65
2023/01/16 04:53:59;;;;;;;6.05;2.00;;;;;;;2.71;100.00;98841.91;5023664;28;20057;-65
2023/01/16 04:56:24;;;;;;;9.82;2.33;;;;;;;2.73;100.00;98835.09;5023216;28;20073;-65
2023/01/16 04:58:50;;;;;;;6.07;2.60;;;;;;;2.78;100.00;98822.34;5022763;28;20479;-65
2023/01/16 05:01:17;;;;;;;9.63;2.25;;;;;;;2.80;100.00;98807.81;5022188;28;20037;-65
2023/01/16 05:03:42;;;;;;;8.98;2.33;;;;;;;2.83;100.00;98807.03;5023550;28;20030;-65
2023/01/16 05:06:08;;;;;;;7.85;2.25;;;;;;;2.86;100.00;98800.22;5023653;28;20566;-65
2023/01/16 05:08:33;;;;;;;5.72;2.10;;;;;;;2.89;100.00;98795.16;5023459;28;20033;-65
2023/01/16 05:11:00;;;;;;;5.82;1.92;;;;;;;2.93;100.00;98780.66;5021895;28;20029;-65
2023/01/16 05:13:27;;;;;;;7.13;2.05;;;;;;;2.95;100.00;98773.84;5026962;28;20027;-65
2023/01/16 05:15:52;;;;;;;6.22;2.10;;;;;;;2.99;100.00;98765.34;5026131;28;20034;-65
2023/01/16 05:18:17;;;;;;;9.27;2.30;;;;;;;3.02;100.00;98761.97;5026862;28;20395;-65
2023/01/16 05:20:43;;;;;;;10.27;2.50;;;;;;;3.07;100.00;98747.47;5027063;28;21340;-65
2023/01/16 05:23:11;;;;;;;10.60;2.30;;;;;;;3.13;100.00;98750.19;5025982;28;20087;-65
2023/01/16 05:25:37;;;;;;;7.85;2.30;;;;;;;3.16;100.00;98731.34;5026559;28;20059;-65
2023/01/16 05:28:03;;;;;;;7.25;1.98;;;;;;;3.20;100.00;98728.91;5026638;28;20104;-65
2023/01/16 05:30:28;;;;;;;8.85;2.28;;;;;;;3.24;100.00;98722.06;5026387;28;20174;-65
2023/01/16 05:32:53;;;;;;;9.02;2.10;;;;;;;3.26;100.00;98710.97;5027063;28;20107;-65
2023/01/16 05:35:19;;;;;;;7.45;2.58;;;;;;;3.28;100.00;98699.00;5025977;28;20112;-65
2023/01/16 05:37:45;;;;;;;9.93;2.38;;;;;;;3.29;100.00;98685.28;5026882;28;20487;-65
2023/01/16 05:40:11;;;;;;;7.65;2.00;;;;;;;3.32;100.00;98674.19;5026263;28;20040;-65
2023/01/16 05:42:36;;;;;;;6.60;1.85;;;;;;;3.31;100.00;98652.72;5026285;28;20108;-65
2023/01/16 05:45:03;;;;;;;7.07;2.47;;;;;;;3.31;100.00;98657.88;5026642;28;20041;-65
2023/01/16 05:47:28;;;;;;;9.55;2.10;;;;;;;3.34;100.00;98648.47;5026689;28;20183;-65
2023/01/16 05:49:53;;;;;;;7.18;1.90;;;;;;;3.36;100.00;98628.78;5025901;28;20512;-65
2023/01/16 05:52:19;;;;;;;10.45;1.90;;;;;;;3.40;100.00;98631.41;5026844;28;20033;-65
2023/01/16 05:54:44;;;;;;;4.80;1.83;;;;;;;3.41;100.00;98620.28;5026098;28;20033;-65
2023/01/16 05:57:10;;;;;;;6.75;1.58;;;;;;;3.46;100.00;98617.78;5025783;28;20095;-65
2023/01/16 05:59:35;;;;;;;4.88;1.50;;;;;;;3.47;100.00;98615.22;5026154;28;20044;-65
2023/01/16 06:02:01;;;;;;;7.78;1.88;;;;;;;3.47;100.00;98610.06;5026186;28;20021;-65
2023/01/16 06:04:27;;;;;;;7.32;1.90;;;;;;;3.47;100.00;98604.06;5025218;28;20040;-65
2023/01/16 06:06:53;;;;;;;4.43;1.60;;;;;;;3.51;100.00;98602.44;5026211;28;20021;-65
2023/01/16 06:09:18;;;;;;;7.25;1.98;;;;;;;3.51;100.00;98597.28;5025980;28;20045;-66
2023/01/16 06:11:43;;;;;;;9.32;2.30;;;;;;;3.48;100.00;98596.38;5026156;28;20032;-65
2023/01/16 06:14:09;;;;;;;5.95;1.80;;;;;;;3.52;100.00;98587.00;5025248;28;20041;-65
2023/01/16 06:16:34;;;;;;;9.45;1.83;;;;;;;3.55;100.00;98592.19;5024181;28;20119;-65
2023/01/16 06:19:00;;;;;;;5.88;1.70;;;;;;;3.55;100.00;98570.72;5025321;28;20017;-65
2023/01/16 06:21:26;;;;;;;8.65;1.80;;;;;;;3.56;100.00;98567.28;5025950;28;20047;-66
2023/01/16 06:23:51;;;;;;;4.00;1.70;;;;;;;3.56;100.00;98564.72;5024708;28;20025;-65
2023/01/16 06:26:17;;;;;;;6.55;1.58;;;;;;;3.55;100.00;98561.28;5025436;28;20037;-65
2023/01/16 06:28:42;;;;;;;5.35;1.55;;;;;;;3.55;100.00;98558.72;5025278;28;20037;-65
2023/01/16 06:31:08;;;;;;;5.05;1.48;;;;;;;3.54;100.00;98544.09;5023772;28;20494;-65
2023/01/16 06:33:33;;;;;;;5.32;1.80;;;;;;;3.55;100.00;98545.84;5025884;28;20476;-65
2023/01/16 06:35:59;;;;;;;6.00;1.50;;;;;;;3.55;100.00;98545.84;5025489;28;20505;-65
2023/01/16 06:38:24;;;;;;;5.20;1.48;;;;;;;3.54;100.00;98526.09;5025483;28;20040;-65
2023/01/16 06:40:55;;;;;;;5.32;1.50;;;;;;;3.53;100.00;98519.19;5025253;28;20091;-65
2023/01/16 06:43:21;;;;;;;6.97;1.85;;;;;;;3.52;100.00;98514.03;5024125;28;20033;-65
2023/01/16 06:45:46;;;;;;;5.55;1.70;;;;;;;3.52;100.00;98503.72;5024919;28;20082;-65
2023/01/16 06:48:12;;;;;;;4.15;1.48;;;;;;;3.50;100.00;98493.41;5025256;28;20049;-65
2023/01/16 06:50:37;;;;;;;7.63;2.08;;;;;;;3.51;100.00;98482.28;5024812;28;20017;-66
2023/01/16 06:53:02;;;;;;;7.63;1.85;;;;;;;3.50;100.00;98448.78;5024853;28;20128;-65
2023/01/16 06:55:28;;;;;;;7.57;1.65;;;;;;;3.48;100.00;98448.78;5025082;28;20147;-65
2023/01/16 06:57:53;;;;;;;4.70;1.50;;;;;;;3.48;100.00;98441.03;5025233;28;20049;-66
2023/01/16 07:00:18;;;;;;;5.35;1.70;;;;;;;3.48;100.00;98435.91;5025251;28;20029;-65
2023/01/16 07:02:54;;;;;;;6.10;1.48;;;;;;;3.48;100.00;98426.44;5025330;28;20483;-65
2023/01/16 07:05:20;;;;;;;7.97;1.77;;;;;;;3.48;100.00;98410.16;5024926;28;20021;-65
2023/01/16 07:07:45;;;;;;;3.38;1.20;;;;;;;3.48;100.00;98403.28;5024609;28;20499;-65
2023/01/16 07:10:11;;;;;;;4.95;1.30;;;;;;;3.50;100.00;98392.16;5024869;28;20033;-65
2023/01/16 07:12:36;;;;;;;5.45;1.48;;;;;;;3.50;100.00;98381.84;5024968;28;20072;-65
2023/01/16 07:23:24;;;;;;;5.40;1.20;;;;;;;3.52;100.00;98336.38;5024550;28;20040;-66
2023/01/16 07:25:50;;;;;;;4.13;1.30;;;;;;;3.51;100.00;98325.22;5024497;28;20021;-65
2023/01/16 07:28:16;;;;;;;6.57;1.50;;;;;;;3.48;100.00;98320.91;5024704;28;20291;-65
2023/01/16 07:30:43;;;;;;;5.95;1.58;;;;;;;3.50;100.00;98326.06;5024332;28;20181;-65
2023/01/16 07:33:09;;;;;;;6.10;1.42;;;;;;;3.48;100.00;98302.88;5024375;28;20033;-66
2023/01/16 07:35:34;;;;;;;7.93;1.63;;;;;;;3.48;100.00;98307.19;5022958;28;20028;-66
2023/01/16 07:37:59;;;;;;;5.40;1.30;;;;;;;3.53;100.00;98307.22;5024605;28;20126;-66
2023/01/16 07:40:25;;;;;;;7.47;1.70;;;;;;;3.53;100.00;98292.63;5024160;28;20308;-66
2023/01/16 07:42:51;;;;;;;3.60;1.30;;;;;;;3.55;100.00;98290.97;5024676;28;20021;-66
2023/01/16 07:45:16;;;;;;;6.70;1.50;;;;;;;3.52;100.00;98283.19;5024338;28;20029;-66
2023/01/16 07:47:41;;;;;;;6.88;1.90;;;;;;;3.54;100.00;98281.50;5023507;28;20124;-66
2023/01/16 07:50:07;;;;;;;6.63;1.40;;;;;;;3.51;100.00;98280.63;5023990;28;20094;-66
2023/01/16 07:52:33;;;;;;;5.22;1.45;;;;;;;3.50;100.00;98272.00;5023375;28;20082;-66
2023/01/16 07:54:58;;;;;;;6.55;1.42;;;;;;;3.50;100.00;98272.00;5023184;28;20017;-66
2023/01/16 07:57:25;;;;;;;5.70;1.60;;;;;;;3.50;100.00;98264.28;5023940;28;20041;-65
2023/01/16 07:59:50;;;;;;;8.93;2.03;;;;;;;3.49;100.00;98254.84;5024240;28;20064;-66
2023/01/16 08:02:16;;;;;;;5.57;1.70;;;;;;;3.50;100.00;98253.13;5022719;28;20065;-66
2023/01/16 08:04:41;;;;;;;6.45;1.60;;;;;;;3.48;100.00;98232.53;5023685;28;20052;-66
2023/01/16 08:07:06;;;;;;;6.13;1.45;;;;;;;3.48;100.00;98227.38;5022923;28;20533;-66
2023/01/16 08:09:32;;;;;;;5.00;1.48;;;;;;;3.50;100.00;98214.53;5023623;28;20386;-66
2023/01/16 08:11:57;;;;;;;8.27;1.60;;;;;;;3.50;100.00;98214.53;5024064;28;20037;-66
2023/01/16 08:14:22;;;;;;;7.85;1.77;;;;;;;3.47;100.00;98202.47;5023403;28;20475;-65
2023/01/16 08:16:48;;;;;;;4.95;1.60;;;;;;;3.49;100.00;98200.78;5022757;28;20129;-66
2023/01/16 08:19:13;;;;;;;6.85;1.52;;;;;;;3.51;100.00;98198.25;5023350;28;20110;-66
2023/01/16 08:21:39;;;;;;;6.22;1.95;;;;;;;3.54;100.00;98191.38;5022922;28;20029;-66
2023/01/16 08:24:04;;;;;;;6.45;1.30;;;;;;;3.52;100.00;98184.50;5023991;28;20049;-66
2023/01/16 08:26:30;;;;;;;6.07;1.60;;;;;;;3.53;100.00;98171.63;5022187;28;20067;-66
2023/01/16 08:28:55;;;;;;;4.20;1.40;;;;;;;3.55;100.00;98163.91;5023101;28;20029;-66
2023/01/16 08:31:20;;;;;;;4.85;1.90;;;;;;;3.56;100.00;98165.66;5023429;28;20538;-66
2023/01/16 08:33:48;;;;;;;4.38;1.80;;;;;;;3.58;100.00;98159.69;5023220;28;20025;-66
2023/01/16 08:36:16;;;;;;;4.30;1.52;;;;;;;3.58;100.00;98145.94;5023717;28;20021;-66
2023/01/16 08:38:42;;;;;;;5.93;1.70;;;;;;;3.60;100.00;98147.66;5023533;28;20048;-66
2023/01/16 08:51:21;;;;;;;5.45;1.70;;;;;;;3.62;100.00;98138.25;5023625;28;20025;-66
2023/01/16 08:52:08;;;;;;;5.60;1.42;;;;;;;3.72;100.00;98131.47;5026685;28;20087;-66
2023/01/16 08:54:34;;;;;;;8.35;1.77;;;;;;;3.73;100.00;98143.47;5027474;28;20403;-66
2023/01/16 08:56:59;;;;;;;5.85;1.60;;;;;;;3.72;100.00;98118.59;5027354;28;20484;-66
2023/01/16 08:59:24;;;;;;;6.60;1.58;;;;;;;3.81;100.00;98131.53;5026105;28;20100;-66
2023/01/16 09:01:50;;;;;;;5.07;1.60;;;;;;;3.81;100.00;98136.66;5027519;28;20037;-66
2023/01/16 09:04:15;;;;;;;5.55;1.70;;;;;;;3.82;100.00;98128.09;5025581;28;20902;-66
2023/01/16 09:06:40;;;;;;;6.63;1.90;;;;;;;3.82;100.00;98111.75;5025981;28;20021;-66
2023/01/16 09:09:06;;;;;;;5.60;2.00;;;;;;;3.79;100.00;98120.31;5023244;28;20033;-66
2023/01/16 09:14:18;;;;;;;5.10;1.67;;;;;;;3.76;100.00;98112.59;5025134;28;20033;-67
2023/01/16 09:16:43;;;;;;;5.53;1.75;;;;;;;3.80;100.00;98119.47;5024952;28;20038;-66
2023/01/16 09:19:09;;;;;;;5.45;1.70;;;;;;;3.78;100.00;98110.00;5027019;28;20566;-66
2023/01/16 09:21:34;;;;;;;6.43;1.50;;;;;;;3.76;100.00;98107.44;5025695;28;20434;-66
2023/01/16 09:23:59;;;;;;;3.53;1.40;;;;;;;3.77;100.00;98098.88;5026129;28;20021;-66
2023/01/16 09:26:25;;;;;;;3.33;1.42;;;;;;;3.77;100.00;98095.44;5026222;28;20021;-66
2023/01/16 09:28:50;;;;;;;8.35;3.60;;;;;;;3.76;100.00;98104.00;5027239;28;20029;-66
2023/01/16 09:31:16;;;;;;;4.00;2.10;;;;;;;3.77;100.00;98106.59;5026681;28;20547;-66
2023/01/16 09:33:41;;;;;;;4.32;1.33;;;;;;;3.78;100.00;98094.56;5026266;28;20029;-66
2023/01/16 09:36:07;;;;;;;5.25;1.40;;;;;;;3.76;100.00;98089.41;5025904;28;20032;-66
2023/01/16 09:38:33;;;;;;;3.28;1.30;;;;;;;3.78;100.00;98095.44;5025818;28;20032;-66
2023/01/16 09:40:59;;;;;;;2.95;1.42;;;;;;;3.79;100.00;98093.72;5025933;28;20037;-66
2023/01/16 09:43:38;;;;;;;4.25;1.02;;;;;;;3.80;100.00;98080.00;5025160;28;20400;-66
2023/01/16 09:46:12;;;;;;;3.40;1.10;;;;;;;3.83;100.00;98087.75;5026866;28;20032;-66
2023/01/16 09:49:12;;;;;;;3.08;0.98;;;;;;;3.86;100.00;98081.75;5025927;28;20487;-67
2023/01/16 09:58:35;;;;;;;2.92;1.00;;;;;;;3.87;100.00;98075.72;5023083;28;20060;-66
2023/01/16 10:00:17;;;;;;;1.83;0.80;;;;;;;3.95;100.00;98068.91;5026464;28;20036;-66
2023/01/16 10:02:43;;;;;;;3.15;0.80;;;;;;;3.99;100.00;98062.94;5025975;28;20112;-66
2023/01/16 10:05:10;;;;;;;2.33;0.90;;;;;;;3.98;100.00;98067.22;5023874;28;20116;-66
2023/01/16 10:07:38;;;;;;;2.92;1.00;;;;;;;3.99;100.00;98058.63;5025994;28;20033;-68
2023/01/16 10:10:12;;;;;;;3.60;1.05;;;;;;;4.04;100.00;98056.09;5025411;28;20087;-66
2023/01/16 10:12:39;;;;;;;2.70;1.00;;;;;;;4.08;100.00;98047.50;5025882;28;20033;-67
2023/01/16 10:15:40;;;;;;;3.65;0.80;;;;;;;4.12;100.00;98043.22;5025591;28;20394;-66
2023/01/16 10:18:56;;;;;;;4.82;1.00;;;;;;;4.16;100.00;98034.66;5025571;28;21207;-67
2023/01/16 10:21:39;;;;;;;2.80;0.90;;;;;;;4.22;100.00;98029.53;5008668;28;20053;-66
2023/01/16 10:24:13;;;;;;;1.90;0.90;;;;;;;4.29;100.00;98025.25;5024845;28;20549;-66
2023/01/16 10:26:58;;;;;;;2.33;0.90;;;;;;;4.37;100.00;98018.38;5026050;28;20032;-66
2023/01/16 10:29:49;;;;;;;3.70;0.80;;;;;;;4.42;100.00;98015.81;5025374;28;20071;-67
2023/01/16 10:32:27;;;;;;;2.55;0.70;;;;;;;4.47;100.00;98008.97;5023867;28;20408;-66
2023/01/16 10:35:04;;;;;;;3.95;0.98;;;;;;;4.50;99.88;98006.38;5025682;28;20492;-66
2023/01/16 10:37:31;;;;;;;3.85;0.90;;;;;;;4.52;99.56;98002.13;5025337;28;20234;-64
2023/01/16 10:40:00;;;;;;;2.97;1.00;;;;;;;4.55;100.00;97998.66;5025684;28;20032;-63
2023/01/16 10:50:56;;;;;;;2.65;0.98;;;;;;;4.66;98.77;97978.91;5025196;28;20044;-63
2023/01/16 10:53:22;;;;;;;3.40;1.08;;;;;;;4.64;97.95;97978.91;5025105;28;20098;-63
2023/01/16 10:55:51;;;;;;;2.78;1.05;;;;;;;4.65;98.46;97967.75;5023846;28;20033;-63
2023/01/16 10:58:25;;;;;;;3.42;1.33;;;;;;;4.63;97.85;97959.13;5023790;28;20057;-64
2023/01/16 11:00:56;;;;;;;2.70;0.90;;;;;;;4.65;98.58;97961.69;5023672;28;20044;-63
2023/01/16 11:03:37;;;;;;;4.47;1.88;;;;;;;4.66;98.59;97946.25;5023764;28;20032;-64
2023/01/16 11:06:22;;;;;;;7.07;2.67;;;;;;;4.67;97.56;97931.63;5025267;28;20034;-63
2023/01/16 11:08:51;;;;;;;18.88;7.32;;;;;;;4.68;98.25;97928.19;5024100;28;20075;-63
2023/01/16 11:20:30;;;;;;;4.22;1.23;;;;;;;4.74;97.78;97904.97;5023212;28;20511;-63
2023/01/16 11:22:58;;;;;;;3.10;1.20;;;;;;;4.74;97.76;97892.09;5024457;28;20059;-63
2023/01/16 11:25:26;;;;;;;5.97;3.53;;;;;;;4.78;96.11;97890.34;5024459;28;20029;-63
2023/01/16 11:27:52;;;;;;;5.85;3.15;;;;;;;4.78;96.87;97878.31;5024281;28;20079;-63
2023/01/16 11:30:31;;;;;;;3.38;1.38;;;;;;;4.81;97.40;97874.91;5024060;28;20040;-63
2023/01/16 11:32:57;;;;;;;3.50;1.60;;;;;;;4.82;96.69;97869.72;5024308;28;20088;-63
2023/01/16 11:35:32;;;;;;;4.20;1.17;;;;;;;4.83;95.86;97868.00;5022961;28;20531;-64
2023/01/16 11:38:00;;;;;;;2.83;0.98;;;;;;;4.85;95.66;97861.97;5024607;28;20119;-66
2023/01/16 11:40:27;;;;;;;3.85;1.10;;;;;;;4.85;96.18;97856.81;5024328;28;20041;-66
2023/01/16 11:48:26;;;;;;;3.13;1.25;;;;;;;4.90;96.44;97843.06;5023170;28;20036;-66
2023/01/16 11:50:55;;;;;;;4.63;1.17;;;;;;;4.90;95.90;97837.91;5024036;28;20025;-66
2023/01/16 11:53:21;;;;;;;5.60;1.52;;;;;;;4.90;96.23;97836.16;5023776;28;20045;-66
2023/01/16 11:56:17;;;;;;;3.78;1.20;;;;;;;4.91;96.64;97830.16;5023500;28;20021;-66
2023/01/16 11:58:49;;;;;;;2.58;1.20;;;;;;;4.90;95.49;97823.28;5024365;28;20510;-66
2023/01/16 12:05:53;;;;;;;4.82;2.10;;;;;;;4.93;95.68;97812.94;5012613;28;20044;-66
2023/01/16 12:07:53;;;;;;;4.43;1.85;;;;;;;4.94;96.82;97808.63;5023248;28;20029;-66
2023/01/16 12:10:35;;;;;;;3.55;1.63;;;;;;;4.94;97.72;97804.34;5023557;28;20399;-66
2023/01/16 12:15:57;;;;;;;4.07;1.30;;;;;;;4.95;98.71;97784.53;5023728;28;20048;-66
2023/01/16 12:18:41;;;;;;;3.17;1.50;;;;;;;4.97;98.51;97780.25;5023394;28;20029;-66
2023/01/16 12:21:26;;;;;;;3.40;1.58;;;;;;;4.99;98.32;97776.78;5021540;28;20123;-66
2023/01/16 12:23:54;;;;;;;4.10;1.48;;;;;;;5.02;98.21;97779.34;5022161;28;20025;-66
2023/01/16 12:26:25;;;;;;;3.95;1.55;;;;;;;5.01;98.88;97772.50;5023151;28;20420;-66
2023/01/16 12:28:59;;;;;;;2.70;1.10;;;;;;;5.01;97.48;97771.63;5024114;28;20065;-66
2023/01/16 12:31:51;;;;;;;3.90;1.30;;;;;;;5.01;98.48;97761.28;5023724;28;20116;-66
2023/01/16 12:34:41;;;;;;;2.80;1.20;;;;;;;5.02;99.35;97757.84;5023630;28;20056;-66
2023/01/16 12:37:17;;;;;;;3.20;1.30;;;;;;;5.03;99.39;97760.44;5022718;28;20063;-66
2023/01/16 12:40:12;;;;;;;4.10;1.40;;;;;;;5.04;99.56;97751.84;5023945;28;20053;-66
2023/01/16 12:43:21;;;;;;;3.33;1.35;;;;;;;5.07;98.53;97753.56;5023836;28;20033;-66
2023/01/16 12:45:58;;;;;;;4.30;1.73;;;;;;;5.12;98.82;97735.47;5023328;28;20021;-66
2023/01/16 12:48:29;;;;;;;5.78;1.67;;;;;;;5.18;98.82;97735.41;5039197;28;20150;-66
2023/01/16 12:51:17;;;;;;;3.85;2.08;;;;;;;5.22;97.72;97721.63;5022636;28;20057;-66